Carter Lake, IA (51510)

03:29 AM CDT del 24 Agosto 2016 (GMT -0500)
CarterLake.org | | Change Station

Alt. 980 ft 41.29 °N, 95.92 °W | Updated 4 seconds ago

Overcast
Coperto
66.0 °F
Sembra 66.0 °F
N
0.0
Vento Variabile Vento da Sud
Gusts 2.3 mph

Oggi
Massima -- | Minima -- °F
--% Possibilità di precip.
Ieri
Massima -- | Minima -- °F
Precip. -- in
Pressione 29.91 in
Visibilità 10.0 miglia
Nuvole Alcuni 9500 ft
Coperto 18000 ft
Punto di rugiada 63 °F
Umidità 91%
Piovosità 0.00 in
Spessore del manto nevoso Non disponibile.
6:42 AM 8:08 PM
Gobba a levante, 59% visible
METAR KOMA 240752Z 14006KT 10SM FEW095 OVC180 20/17 A2989 RMK AO2 TSE13 SLP127 FRQ LTGIC DSNT N CB DSNT N MOV SE FRQ LTGIC DSNT SE-S T02000172 $
Pressione 29.91 in
Visibilità 10.0 miglia
Nuvole Alcuni 9500 ft
Coperto 18000 ft
Punto di rugiada 63 °F
Umidità 91%
Piovosità 0.00 in
Spessore del manto nevoso Non disponibile.
6:42 AM 8:08 PM
Gobba a levante, 59% visible
METAR KOMA 240752Z 14006KT 10SM FEW095 OVC180 20/17 A2989 RMK AO2 TSE13 SLP127 FRQ LTGIC DSNT N CB DSNT N MOV SE FRQ LTGIC DSNT SE-S T02000172 $

10-Day Weather Forecast

Almanac

Astronomia

Aug. 24, 2016 Alba Tramonto
Ora attuale
Crepuscolo civile
Crepuscolo nautico
Crepuscolo astronomico
Luna
Estensione della luce visibile
Lunghezza del giorno
Tomorrow will be .
, % of the Moon is Illuminated

Gli estremi di oggi

State Highs State Lows

Community

WunderPhotos

Upload Photos

1,934,560 foto caricate!

WunderBlog® & News

Nearby

Qualità dell'aria

  Qualità dell'aria Indice AQ Inquinante
Not available.

Profondità neve

Stazione Profondità Altitudine

Attività sismica

Città  Distanza Mag. Data & Ora
Minimo Magnitudo Mostrato è 2.5.

Temperature delle acque costiere

Località Temperatura

Stations

Stazioni meteo nelle vicinanze

Ubicazione della stazione Temp. Raffreddamento del vento Punto di rugiada Umidità Vento Precip. Alt. Aggiornato Tipo
                   

Watches & Warnings

There are currently no watches in effect.